x

Cedar Key, Fl (cdrf1) Weather Station

3:00pm - Wed 24th May 2017 All times are EDT. -4 hours from GMT.

  • Wind
    15mph, 20mph gusts
  • Air Temp 79°f
  • Sea Pressure 1005.3mb
  • Cedar Key, Fl
  • Cedar Key, Fl

More Historic Weather Station data

Upgrade to MSW Pro to gain access to the past 30 days of data for over 8000 Wavebouys and Weather Stations around the globe.

Join Pro

Comparision Forecast

View Surf forecast
   
Wed 05/24 3:00pm 15 20 mph 1005.3mb 79f
2:00pm 26 32 mph 1005.2mb 80f
1:00pm 29 36 mph 1005.4mb 77f
12:00pm 24 36 mph 1006.4mb 78f
11:00am 28 32 mph 1006.2mb 80f
10:00am 30 36 mph 1005.6mb 80f
9:00am 25 31 mph 1005.7mb 80f
8:00am 17 24 mph 1006mb 80f
7:00am 14 21 mph 1006.6mb 80f
6:00am 11 15 mph 1007.1mb 79f
5:00am 14 20 mph 1007.7mb 79f
4:00am 14 18 mph 1007.8mb 79f
3:00am 17 20 mph 1007.9mb 80f
2:00am 13 18 mph 1008.5mb 80f
1:00am 15 17 mph 1009mb 80f
12:00am 13 20 mph 1009.9mb 79f
Tue 05/23 11:00pm 18 24 mph 1009.9mb 80f
10:00pm 16 23 mph 1009.3mb 80f
9:00pm 16 25 mph 1009.5mb 81f
8:00pm 17 26 mph 1009.3mb 80f
7:00pm 17 23 mph 1009.7mb 81f
6:00pm 17 22 mph 1009.9mb 80f
5:00pm 17 23 mph 1010.5mb 81f
4:00pm 15 21 mph 1011mb 81f
3:00pm 23 26 mph 1010.8mb 81f
2:00pm 18 23 mph 1011.6mb 81f
1:00pm 21 26 mph 1012.3mb 81f
12:00pm 20 26 mph 1012.4mb 80f
11:00am 21 24 mph 1012.8mb 80f
10:00am 21 26 mph 1013.1mb 80f
9:00am 17 20 mph 1013mb 80f
8:00am 15 18 mph 1013.3mb 79f
7:00am 14 17 mph 1012.9mb 79f
6:00am 11 15 mph 1012.4mb 79f
5:00am 14 18 mph 1012.7mb 79f
4:00am 13 16 mph 1013.1mb 79f
3:00am 10 15 mph 1013.9mb 79f
2:00am 9 13 mph 1014.6mb 79f
1:00am 9 13 mph 1015.1mb 79f
12:00am 6 7 mph 1015.5mb 79f
Mon 05/22 11:00pm 7 10 mph 1015.5mb 79f
10:00pm 7 9 mph 1015.7mb 79f
9:00pm 7 10 mph 1015.6mb 80f
8:00pm 9 13 mph 1015.3mb 80f
7:00pm 8 11 mph 1015.1mb 80f
6:00pm 9 14 mph 1015.1mb 81f
5:00pm 9 14 mph 1015.4mb 81f
4:00pm 11 16 mph 1016.1mb 81f
3:00pm 8 10 mph 1016.6mb 81f
2:00pm 6 9 mph 1017.1mb 81f
1:00pm 8 9 mph 1017.9mb 80f
12:00pm 6 8 mph 1018.5mb 81f
11:00am 5 7 mph 1018.6mb 81f
10:00am 9 10 mph 1018.6mb 79f
9:00am 6 8 mph 1018.5mb 79f
8:00am 6 7 mph 1018.4mb 79f
7:00am 7 8 mph 1018.2mb 78f
6:00am 2 2 mph 1017.9mb 78f
5:00am 5 6 mph 1017.7mb 78f
4:00am 5 6 mph 1017.9mb 76f
3:00am 7 7 mph 1018.4mb 76f
2:00am 7 9 mph 1018.7mb 76f
1:00am 3 6 mph 1019.1mb 76f
12:00am 6 9 mph 1019.4mb 78f
Sun 05/21 11:00pm 6 7 mph 1019.5mb 78f
10:00pm 3 5 mph 1019.1mb 80f
9:00pm 1 2 mph 1018.3mb 79f
8:00pm 3 6 mph 1017.6mb 80f
7:00pm 5 6 mph 1017.5mb 81f
6:00pm 7 9 mph 1017.7mb 81f
5:00pm 6 8 mph 1018.2mb 82f
4:00pm 5 8 mph 1018.7mb 82f
3:00pm 8 9 mph 1019mb 80f
2:00pm 6 7 mph 1019.7mb 78f
1:00pm 7 8 mph 1020.3mb 77f
12:00pm 9 11 mph 1021.4mb 75f
11:00am 9 11 mph 1022.2mb 72f
10:00am 8 9 mph 1021.2mb 77f
9:00am 2 3 mph 1020.8mb 77f
8:00am 3 5 mph 1020.3mb 79f
7:00am 5 6 mph 1020.1mb 79f
6:00am 8 9 mph 1019.2mb 79f
5:00am 9 9 mph 1019.1mb 80f
4:00am 7 8 mph 1019.4mb 80f
3:00am 8 9 mph 1019mb 79f
2:00am 10 13 mph 1019.2mb 79f
1:00am 6 7 mph 1019.4mb 82f
12:00am 9 10 mph 1019.4mb 81f
Sat 05/20 11:00pm 9 10 mph 1019mb 81f
10:00pm 1 2 mph 1018.6mb 81f
9:00pm 6 9 mph 1017.2mb 81f